createdAt,value
2022-08-21T00:02:22.822Z,21.02
2022-08-21T00:04:57.394Z,20.95
2022-08-21T00:07:26.062Z,20.88
2022-08-21T00:09:54.308Z,20.84
2022-08-21T00:12:22.552Z,20.80
2022-08-21T00:14:50.366Z,20.76
2022-08-21T00:17:23.577Z,20.70
2022-08-21T00:19:51.342Z,20.62
2022-08-21T00:22:20.609Z,20.57
2022-08-21T00:24:48.593Z,20.53
2022-08-21T00:27:16.377Z,20.47
2022-08-21T00:29:44.183Z,20.41
2022-08-21T00:32:12.011Z,20.37
2022-08-21T00:34:39.811Z,20.32
2022-08-21T00:37:09.073Z,20.29
2022-08-21T00:39:37.015Z,20.26
2022-08-21T00:42:05.032Z,20.23
2022-08-21T00:44:33.586Z,20.20
2022-08-21T00:47:01.417Z,20.15
2022-08-21T00:49:29.194Z,20.10
2022-08-21T00:51:59.821Z,20.03
2022-08-21T00:54:30.956Z,19.94
2022-08-21T00:57:04.756Z,19.85
2022-08-21T00:59:36.182Z,19.77
2022-08-21T01:02:06.504Z,19.71
2022-08-21T01:04:35.177Z,19.65
2022-08-21T01:07:04.185Z,19.62
2022-08-21T01:09:32.634Z,19.61
2022-08-21T01:12:00.571Z,19.59
2022-08-21T01:14:29.647Z,19.54
2022-08-21T01:16:59.553Z,19.47
2022-08-21T01:19:27.921Z,19.42
2022-08-21T01:21:55.977Z,19.37
2022-08-21T01:24:23.965Z,19.32
2022-08-21T01:26:52.447Z,19.29
2022-08-21T01:29:39.749Z,19.27
2022-08-21T01:32:13.719Z,19.23
2022-08-21T01:34:45.240Z,19.19
2022-08-21T01:37:14.189Z,19.16
2022-08-21T01:39:43.598Z,19.12
2022-08-21T01:42:12.039Z,19.06
2022-08-21T01:44:40.292Z,19.02
2022-08-21T01:47:10.137Z,18.99
2022-08-21T01:49:38.740Z,18.94
2022-08-21T01:52:07.130Z,18.91
2022-08-21T01:54:37.929Z,18.88
2022-08-21T01:57:05.987Z,18.86
2022-08-21T01:59:34.412Z,18.84
2022-08-21T02:02:02.200Z,18.82
2022-08-21T02:04:29.994Z,18.80
2022-08-21T02:06:57.785Z,18.78
2022-08-21T02:09:25.528Z,18.78
2022-08-21T02:11:53.497Z,18.74
2022-08-21T02:14:32.080Z,18.69
2022-08-21T02:17:08.693Z,18.65
2022-08-21T02:19:40.147Z,18.60
2022-08-21T02:22:11.620Z,18.56
2022-08-21T02:24:54.289Z,18.54
2022-08-21T02:27:26.510Z,18.53
2022-08-21T02:29:58.077Z,18.51
2022-08-21T02:32:26.758Z,18.49
2022-08-21T02:34:54.995Z,18.48
2022-08-21T02:37:24.049Z,18.46
2022-08-21T02:39:52.294Z,18.44
2022-08-21T02:42:21.450Z,18.44
2022-08-21T02:44:49.249Z,18.42
2022-08-21T02:47:17.196Z,18.40
2022-08-21T02:49:45.059Z,18.37
2022-08-21T02:52:13.037Z,18.35
2022-08-21T02:54:41.410Z,18.34
2022-08-21T02:57:09.430Z,18.33
2022-08-21T02:59:37.546Z,18.31
2022-08-21T03:02:05.369Z,18.30
2022-08-21T03:04:33.577Z,18.30
2022-08-21T03:07:01.530Z,18.29
2022-08-21T03:09:29.589Z,18.32
2022-08-21T03:11:58.715Z,18.34
2022-08-21T03:14:26.608Z,18.36
2022-08-21T03:16:54.792Z,18.37
2022-08-21T03:19:22.526Z,18.37
2022-08-21T03:21:50.302Z,18.38
2022-08-21T03:24:19.235Z,18.39
2022-08-21T03:26:49.652Z,18.42
2022-08-21T03:29:17.843Z,18.45
2022-08-21T03:31:45.679Z,18.48
2022-08-21T03:34:13.482Z,18.51
2022-08-21T03:36:41.397Z,18.55
2022-08-21T03:39:09.212Z,18.57
2022-08-21T03:41:37.893Z,18.60
2022-08-21T03:44:06.467Z,18.63
2022-08-21T03:46:35.139Z,18.67
2022-08-21T03:49:03.396Z,18.70
2022-08-21T03:51:33.326Z,18.74
2022-08-21T03:54:01.046Z,18.78
2022-08-21T03:56:29.148Z,18.83
2022-08-21T03:58:57.463Z,18.87
2022-08-21T04:01:25.523Z,18.92
2022-08-21T04:03:53.390Z,18.99
2022-08-21T04:06:21.213Z,19.05
2022-08-21T04:08:49.514Z,19.13
2022-08-21T04:11:17.812Z,19.20
2022-08-21T04:13:46.152Z,19.24
2022-08-21T04:16:14.895Z,19.27
2022-08-21T04:18:43.716Z,19.31
2022-08-21T04:21:12.698Z,19.37
2022-08-21T04:23:41.560Z,19.44
2022-08-21T04:26:10.002Z,19.54
2022-08-21T04:28:37.826Z,19.63
2022-08-21T04:31:05.609Z,19.75
2022-08-21T04:33:33.396Z,19.89
2022-08-21T04:36:02.617Z,20.05
2022-08-21T04:38:37.532Z,20.21
2022-08-21T04:41:07.564Z,20.40
2022-08-21T04:43:35.910Z,20.51
2022-08-21T04:46:04.565Z,20.65
2022-08-21T04:48:36.816Z,20.77
2022-08-21T04:51:14.764Z,20.91
2022-08-21T04:53:50.427Z,21.05
2022-08-21T04:56:27.793Z,21.19
2022-08-21T04:58:59.310Z,21.29
2022-08-21T05:01:29.163Z,21.34
2022-08-21T05:04:00.065Z,21.38
2022-08-21T05:06:29.718Z,21.51
2022-08-21T05:09:02.135Z,21.64
2022-08-21T05:11:33.883Z,21.77
2022-08-21T05:14:01.685Z,21.89
2022-08-21T05:16:37.420Z,21.95
2022-08-21T05:19:07.370Z,21.97
2022-08-21T05:21:36.245Z,21.90
2022-08-21T05:24:04.372Z,21.86
2022-08-21T05:26:32.343Z,21.83
2022-08-21T05:29:01.082Z,21.80
2022-08-21T05:31:30.213Z,21.84
2022-08-21T05:33:58.053Z,21.96
2022-08-21T05:36:25.961Z,22.07
2022-08-21T05:38:54.715Z,22.20
2022-08-21T05:41:22.911Z,22.37
2022-08-21T05:43:50.852Z,22.56
2022-08-21T05:46:18.673Z,22.68
2022-08-21T05:48:46.520Z,22.80
2022-08-21T05:51:16.247Z,22.93
2022-08-21T05:53:44.879Z,23.13
2022-08-21T05:56:14.004Z,23.32
2022-08-21T05:58:42.259Z,23.37
2022-08-21T06:01:10.871Z,23.38
2022-08-21T06:03:40.546Z,23.31
2022-08-21T06:06:08.527Z,23.29
2022-08-21T06:08:36.799Z,23.37
2022-08-21T06:11:05.571Z,23.43
2022-08-21T06:13:33.787Z,23.41
2022-08-21T06:16:15.760Z,23.44
2022-08-21T06:18:46.060Z,23.50
2022-08-21T06:21:14.582Z,23.55
2022-08-21T06:23:43.332Z,23.55
2022-08-21T06:26:14.431Z,23.48
2022-08-21T06:28:43.173Z,23.47
2022-08-21T06:31:16.045Z,23.50
2022-08-21T06:33:44.354Z,23.52
2022-08-21T06:36:12.270Z,23.54
2022-08-21T06:38:40.402Z,23.52
2022-08-21T06:41:08.626Z,23.55
2022-08-21T06:43:39.702Z,23.58
2022-08-21T06:46:08.785Z,23.70
2022-08-21T06:48:36.877Z,23.90
2022-08-21T06:51:05.622Z,24.13
2022-08-21T06:53:34.046Z,24.32
2022-08-21T06:56:02.092Z,24.64
2022-08-21T06:58:32.456Z,24.82
2022-08-21T07:01:01.492Z,25.06
2022-08-21T07:03:31.439Z,25.29
2022-08-21T07:05:59.386Z,25.49
2022-08-21T07:08:29.526Z,25.68
2022-08-21T07:10:59.766Z,25.90
2022-08-21T07:13:28.382Z,26.05
2022-08-21T07:16:00.262Z,26.36
2022-08-21T07:18:32.393Z,26.73
2022-08-21T07:21:03.042Z,27.14
2022-08-21T07:23:38.938Z,27.53
2022-08-21T07:26:07.587Z,27.80
2022-08-21T07:28:35.553Z,28.09
2022-08-21T07:31:04.361Z,28.30
2022-08-21T07:33:33.791Z,28.43
2022-08-21T07:36:02.308Z,28.39
2022-08-21T07:38:30.369Z,28.29
2022-08-21T07:41:00.057Z,28.43
2022-08-21T07:43:29.437Z,28.63
2022-08-21T07:45:58.124Z,28.74
2022-08-21T07:48:25.953Z,28.82
2022-08-21T07:50:53.737Z,28.89
2022-08-21T07:53:21.496Z,29.17
2022-08-21T07:55:50.451Z,29.52
2022-08-21T07:58:18.226Z,29.78
2022-08-21T08:00:46.108Z,29.94
2022-08-21T08:03:13.961Z,30.00
2022-08-21T08:05:48.915Z,30.04
2022-08-21T08:08:17.908Z,30.10
2022-08-21T08:10:46.336Z,29.90
2022-08-21T08:13:14.275Z,29.78
2022-08-21T08:15:42.312Z,29.73
2022-08-21T08:18:10.735Z,29.66
2022-08-21T08:20:38.559Z,29.76
2022-08-21T08:23:06.486Z,29.96
2022-08-21T08:25:36.609Z,30.16
2022-08-21T08:28:16.266Z,30.40
2022-08-21T08:30:47.603Z,30.50
2022-08-21T08:33:16.386Z,30.64
2022-08-21T08:35:45.481Z,30.57
2022-08-21T08:38:13.434Z,30.74
2022-08-21T08:40:54.117Z,30.76
2022-08-21T08:43:23.522Z,30.61
2022-08-21T08:45:55.504Z,30.49
2022-08-21T08:48:47.190Z,30.61
2022-08-21T08:51:55.912Z,31.00
2022-08-21T08:54:33.982Z,32.31
2022-08-21T08:57:04.800Z,34.58
2022-08-21T08:59:41.038Z,36.28
2022-08-21T09:02:15.643Z,38.39
2022-08-21T09:04:45.413Z,40.48
2022-08-21T09:07:48.328Z,41.59
2022-08-21T09:10:19.208Z,43.44
2022-08-21T09:13:06.484Z,45.10
2022-08-21T09:15:39.942Z,47.14
2022-08-21T09:18:22.647Z,48.94
2022-08-21T09:21:38.520Z,49.93
2022-08-21T09:24:25.379Z,52.24
2022-08-21T09:27:13.336Z,53.86
2022-08-21T09:29:49.056Z,54.29
2022-08-21T09:32:24.355Z,54.63
2022-08-21T09:35:10.127Z,55.34
2022-08-21T09:37:50.158Z,54.63
2022-08-21T09:40:42.693Z,52.18
2022-08-21T09:43:10.437Z,51.32
2022-08-21T09:45:39.680Z,52.87
2022-08-21T09:48:18.712Z,54.32
2022-08-21T09:50:48.535Z,54.97
2022-08-21T09:53:25.920Z,54.94
2022-08-21T09:56:14.570Z,55.39
2022-08-21T09:58:50.439Z,55.96
2022-08-21T10:01:24.941Z,56.96
2022-08-21T10:04:06.370Z,58.14
2022-08-21T10:06:36.002Z,59.17
2022-08-21T10:09:20.053Z,60.07
2022-08-21T10:12:02.314Z,59.40
2022-08-21T10:14:48.924Z,57.57
2022-08-21T10:17:27.379Z,56.29
2022-08-21T10:20:05.924Z,55.30
2022-08-21T10:22:36.020Z,53.04
2022-08-21T10:25:18.599Z,50.86
2022-08-21T10:28:13.938Z,48.70
2022-08-21T10:30:49.199Z,46.55
2022-08-21T10:33:36.620Z,44.68
2022-08-21T10:36:15.978Z,43.09
2022-08-21T10:39:12.052Z,41.80
2022-08-21T10:42:00.962Z,42.93
2022-08-21T10:44:40.860Z,45.82
2022-08-21T10:47:27.088Z,47.14
2022-08-21T10:50:00.803Z,48.72
2022-08-21T10:52:31.590Z,49.57
2022-08-21T10:55:11.204Z,49.38
2022-08-21T10:57:51.196Z,48.20
2022-08-21T11:00:24.426Z,47.89
2022-08-21T11:03:08.580Z,47.46
2022-08-21T11:05:59.297Z,46.48
2022-08-21T11:08:39.367Z,45.14
2022-08-21T11:11:25.313Z,43.74
2022-08-21T11:14:49.730Z,42.96
2022-08-21T11:17:24.455Z,43.15
2022-08-21T11:20:05.918Z,43.07
2022-08-21T11:23:03.739Z,43.20
2022-08-21T11:25:38.384Z,43.20
2022-08-21T11:28:14.498Z,43.20
2022-08-21T11:30:58.111Z,43.18
2022-08-21T11:34:04.812Z,43.01
2022-08-21T11:37:01.310Z,42.71
2022-08-21T11:39:57.150Z,42.65
2022-08-21T11:49:34.390Z,39.91
2022-08-21T11:52:20.338Z,39.60
2022-08-21T11:54:56.021Z,38.93
2022-08-21T11:57:44.928Z,38.26
2022-08-21T12:00:42.548Z,37.82
2022-08-21T12:03:15.740Z,37.62
2022-08-21T12:05:45.920Z,37.64
2022-08-21T12:08:16.658Z,37.52
2022-08-21T12:11:01.930Z,37.29
2022-08-21T12:13:40.488Z,37.23
2022-08-21T12:16:13.600Z,37.11
2022-08-21T12:18:42.872Z,36.65
2022-08-21T12:21:28.633Z,36.06
2022-08-21T12:24:02.707Z,35.58
2022-08-21T12:26:37.040Z,35.01
2022-08-21T12:29:38.464Z,34.64
2022-08-21T12:32:12.447Z,34.29
2022-08-21T12:35:04.043Z,34.05
2022-08-21T12:37:42.420Z,33.84
2022-08-21T12:40:25.646Z,33.67
2022-08-21T12:42:58.828Z,33.50
2022-08-21T12:45:43.087Z,33.41
2022-08-21T12:48:19.935Z,33.42
2022-08-21T12:50:53.507Z,33.34
2022-08-21T12:53:35.186Z,33.36
2022-08-21T12:56:04.754Z,33.51
2022-08-21T12:58:32.780Z,33.66
2022-08-21T13:01:03.138Z,33.83
2022-08-21T13:03:32.254Z,33.93
2022-08-21T13:06:00.351Z,33.91
2022-08-21T13:08:28.302Z,33.78
2022-08-21T13:11:00.625Z,33.58
2022-08-21T13:13:47.167Z,33.30
2022-08-21T13:16:32.000Z,32.85
2022-08-21T13:19:13.215Z,32.49
2022-08-21T13:21:43.924Z,32.43
2022-08-21T13:24:45.918Z,32.35
2022-08-21T13:27:34.939Z,32.37
2022-08-21T13:30:11.127Z,32.39
2022-08-21T13:32:46.329Z,32.37
2022-08-21T13:35:21.132Z,32.44
2022-08-21T13:37:52.073Z,32.41
2022-08-21T13:40:25.990Z,32.31
2022-08-21T13:42:53.866Z,32.32
2022-08-21T13:45:28.599Z,32.45
2022-08-21T13:47:56.519Z,32.61
2022-08-21T13:50:25.339Z,32.77
2022-08-21T13:52:58.918Z,32.72
2022-08-21T13:55:36.408Z,32.49
2022-08-21T13:58:05.630Z,32.21
2022-08-21T14:00:36.537Z,31.96
2022-08-21T14:03:10.383Z,31.87
2022-08-21T14:05:45.512Z,31.78
2022-08-21T14:08:30.029Z,31.70
2022-08-21T14:10:58.866Z,31.66
2022-08-21T14:13:39.011Z,31.60
2022-08-21T14:16:16.494Z,31.30
2022-08-21T14:19:08.737Z,31.01
2022-08-21T14:21:40.773Z,30.69
2022-08-21T14:24:12.919Z,30.54
2022-08-21T14:26:56.084Z,30.62
2022-08-21T14:29:27.281Z,30.82
2022-08-21T14:32:01.468Z,30.89
2022-08-21T14:34:35.882Z,30.77
2022-08-21T14:37:03.970Z,30.58
2022-08-21T14:39:31.711Z,30.32
2022-08-21T14:42:01.868Z,30.02
2022-08-21T14:44:30.070Z,29.79
2022-08-21T14:46:57.980Z,29.56
2022-08-21T14:49:28.372Z,29.38
2022-08-21T14:51:58.853Z,29.20
2022-08-21T14:54:31.720Z,29.08
2022-08-21T14:57:05.722Z,29.03
2022-08-21T14:59:34.580Z,29.00
2022-08-21T15:02:05.245Z,28.96
2022-08-21T15:04:34.561Z,28.94
2022-08-21T15:07:02.989Z,28.95
2022-08-21T15:09:30.911Z,28.98
2022-08-21T15:12:00.669Z,29.15
2022-08-21T15:14:30.844Z,29.34
2022-08-21T15:16:58.983Z,29.33
2022-08-21T15:19:27.319Z,29.29
2022-08-21T15:21:55.136Z,29.17
2022-08-21T15:24:23.227Z,29.09
2022-08-21T15:26:52.531Z,29.01
2022-08-21T15:29:22.849Z,28.81
2022-08-21T15:31:59.618Z,28.59
2022-08-21T15:34:29.915Z,28.47
2022-08-21T15:36:58.835Z,28.38
2022-08-21T15:39:31.345Z,28.30
2022-08-21T15:42:10.362Z,28.16
2022-08-21T15:44:40.182Z,28.07
2022-08-21T15:47:13.978Z,27.97
2022-08-21T15:49:45.987Z,27.85
2022-08-21T15:52:14.927Z,27.78
2022-08-21T15:54:42.792Z,27.74
2022-08-21T15:57:13.635Z,27.67
2022-08-21T15:59:45.180Z,27.57
2022-08-21T16:02:25.416Z,27.51
2022-08-21T16:04:53.628Z,27.43
2022-08-21T16:07:21.574Z,27.37
2022-08-21T16:09:49.794Z,27.31
2022-08-21T16:12:45.096Z,27.31
2022-08-21T16:15:20.605Z,27.30
2022-08-21T16:17:50.562Z,27.24
2022-08-21T16:20:25.078Z,27.18
2022-08-21T16:22:56.943Z,27.09
2022-08-21T16:25:25.603Z,27.02
2022-08-21T16:27:59.567Z,26.94
2022-08-21T16:30:28.708Z,26.86
2022-08-21T16:32:56.884Z,26.81
2022-08-21T16:35:25.217Z,26.75
2022-08-21T16:37:53.616Z,26.67
2022-08-21T16:40:27.304Z,26.58
2022-08-21T16:42:56.310Z,26.45
2022-08-21T16:45:24.241Z,26.32
2022-08-21T16:47:51.987Z,26.18
2022-08-21T16:50:23.854Z,26.07
2022-08-21T16:52:52.324Z,25.99
2022-08-21T16:55:20.662Z,25.91
2022-08-21T16:57:48.717Z,25.83
2022-08-21T17:00:16.770Z,25.76
2022-08-21T17:02:47.903Z,25.67
2022-08-21T17:05:16.478Z,25.56
2022-08-21T17:07:44.451Z,25.46
2022-08-21T17:10:14.735Z,25.38
2022-08-21T17:12:43.907Z,25.24
2022-08-21T17:15:23.958Z,25.10
2022-08-21T17:17:52.239Z,24.97
2022-08-21T17:20:20.987Z,24.87
2022-08-21T17:22:49.112Z,24.76
2022-08-21T17:25:17.295Z,24.67
2022-08-21T17:27:47.275Z,24.54
2022-08-21T17:30:16.465Z,24.45
2022-08-21T17:32:46.164Z,24.33
2022-08-21T17:35:14.333Z,24.24
2022-08-21T17:37:42.497Z,24.16
2022-08-21T17:40:14.347Z,24.10
2022-08-21T17:42:43.960Z,24.03
2022-08-21T17:45:14.560Z,23.96
2022-08-21T17:47:42.857Z,23.88
2022-08-21T17:50:12.725Z,23.80
2022-08-21T17:52:40.616Z,23.71
2022-08-21T17:55:08.770Z,23.62
2022-08-21T17:57:37.050Z,23.55
2022-08-21T18:00:07.697Z,23.49
2022-08-21T18:02:40.969Z,23.40
2022-08-21T18:05:11.760Z,23.33
2022-08-21T18:07:41.078Z,23.26
2022-08-21T18:10:11.583Z,23.19
2022-08-21T18:12:41.860Z,23.08
2022-08-21T18:15:16.242Z,23.00
2022-08-21T18:17:49.570Z,22.92
2022-08-21T18:20:20.159Z,22.86
2022-08-21T18:22:48.048Z,22.80
2022-08-21T18:25:17.009Z,22.75
2022-08-21T18:27:46.329Z,22.71
2022-08-21T18:30:20.120Z,22.66
2022-08-21T18:32:48.340Z,22.62
2022-08-21T18:35:16.965Z,22.57
2022-08-21T18:37:45.104Z,22.49
2022-08-21T18:40:15.676Z,22.44
2022-08-21T18:42:55.276Z,22.38
2022-08-21T18:45:24.639Z,22.33
2022-08-21T18:47:54.481Z,22.28
2022-08-21T18:50:26.462Z,22.24
2022-08-21T18:52:54.952Z,22.20
2022-08-21T18:55:24.588Z,22.16
2022-08-21T18:57:54.763Z,22.12
2022-08-21T19:00:27.395Z,22.09
2022-08-21T19:02:55.423Z,22.06
2022-08-21T19:05:24.316Z,22.05
2022-08-21T19:07:53.732Z,22.03
2022-08-21T19:10:27.796Z,22.01
2022-08-21T19:12:59.619Z,21.99
2022-08-21T19:15:28.559Z,21.99
2022-08-21T19:17:59.621Z,21.98
2022-08-21T19:20:30.374Z,21.96
2022-08-21T19:22:58.431Z,21.95
2022-08-21T19:25:33.568Z,21.93
2022-08-21T19:28:11.298Z,21.89
2022-08-21T19:30:45.992Z,21.83
2022-08-21T19:33:34.910Z,21.77
2022-08-21T19:36:05.152Z,21.70
2022-08-21T19:38:33.309Z,21.62
2022-08-21T19:41:01.804Z,21.54
2022-08-21T19:43:32.244Z,21.47
2022-08-21T19:46:03.153Z,21.40
2022-08-21T19:48:31.196Z,21.32
2022-08-21T19:50:59.032Z,21.26
2022-08-21T19:53:27.071Z,21.21
2022-08-21T19:55:55.213Z,21.17
2022-08-21T19:58:38.495Z,21.14
2022-08-21T20:01:11.521Z,21.08
2022-08-21T20:03:53.729Z,21.00
2022-08-21T20:06:24.064Z,20.94
2022-08-21T20:08:54.780Z,20.88
2022-08-21T20:11:47.227Z,20.82
2022-08-21T20:14:18.790Z,20.78
2022-08-21T20:16:48.501Z,20.74
2022-08-21T20:19:22.278Z,20.69
2022-08-21T20:21:50.128Z,20.63
2022-08-21T20:24:17.981Z,20.57
2022-08-21T20:29:39.157Z,20.45
2022-08-21T20:32:24.495Z,20.39
2022-08-21T20:37:40.708Z,20.28
2022-08-21T20:40:11.535Z,20.22
2022-08-21T20:42:44.831Z,20.15
2022-08-21T20:45:34.529Z,20.09
2022-08-21T20:48:11.660Z,20.02
2022-08-21T20:50:44.232Z,19.96
2022-08-21T20:53:53.970Z,19.90
2022-08-21T20:56:38.313Z,19.85
2022-08-21T20:59:34.267Z,19.81
2022-08-21T21:02:19.660Z,19.77
2022-08-21T21:05:12.315Z,19.74
2022-08-21T21:07:55.291Z,19.71
2022-08-21T21:10:53.460Z,19.65
2022-08-21T21:13:24.928Z,19.60
2022-08-21T21:15:56.705Z,19.56
2022-08-21T21:18:44.444Z,19.51
2022-08-21T21:21:19.418Z,19.47
2022-08-21T21:24:07.497Z,19.44
2022-08-21T21:26:48.621Z,19.39
2022-08-21T21:29:29.811Z,19.33
2022-08-21T21:31:57.950Z,19.28
2022-08-21T21:34:28.091Z,19.24
2022-08-21T21:37:08.972Z,19.22
2022-08-21T21:39:57.337Z,19.20
2022-08-21T21:42:49.330Z,19.17
2022-08-21T21:45:25.969Z,19.13
2022-08-21T21:48:21.497Z,19.09
2022-08-21T21:51:02.407Z,19.07
2022-08-21T21:53:55.471Z,19.03
2022-08-21T21:56:49.387Z,19.00
2022-08-21T21:59:47.074Z,18.97
2022-08-21T22:02:33.277Z,18.95
2022-08-21T22:05:19.634Z,18.91
2022-08-21T22:07:58.007Z,18.88
2022-08-21T22:10:32.404Z,18.83
2022-08-21T22:13:10.657Z,18.80
2022-08-21T22:15:41.359Z,18.77
2022-08-21T22:18:11.688Z,18.72
2022-08-21T22:20:49.102Z,18.69
2022-08-21T22:23:20.343Z,18.66
2022-08-21T22:25:52.301Z,18.64
2022-08-21T22:28:25.488Z,18.61
2022-08-21T22:30:57.224Z,18.57
2022-08-21T22:33:28.254Z,18.53
2022-08-21T22:35:58.855Z,18.49
2022-08-21T22:38:26.645Z,18.46
2022-08-21T22:41:21.431Z,18.44
2022-08-21T22:44:01.597Z,18.41
2022-08-21T22:46:51.999Z,18.39
2022-08-21T22:49:34.377Z,18.35
2022-08-21T22:52:12.416Z,18.31
2022-08-21T22:54:42.881Z,18.28
2022-08-21T22:57:26.765Z,18.25
2022-08-21T23:00:01.364Z,18.21
2022-08-21T23:02:38.048Z,18.20
2022-08-21T23:05:19.278Z,18.18
2022-08-21T23:07:49.832Z,18.16
2022-08-21T23:10:20.190Z,18.16
2022-08-21T23:12:50.872Z,18.16
2022-08-21T23:15:22.094Z,18.15
2022-08-21T23:17:58.808Z,18.13
2022-08-21T23:20:45.545Z,18.11
2022-08-21T23:23:27.137Z,18.11
2022-08-21T23:26:17.644Z,18.12
2022-08-21T23:29:25.079Z,18.11
2022-08-21T23:32:08.234Z,18.07
2022-08-21T23:34:46.428Z,18.06
2022-08-21T23:37:49.112Z,18.06
2022-08-21T23:40:51.076Z,18.04
2022-08-21T23:43:41.724Z,18.02
2022-08-21T23:46:33.810Z,18.02
2022-08-21T23:49:26.401Z,17.99
2022-08-21T23:52:14.206Z,17.98
2022-08-21T23:55:01.775Z,17.98
2022-08-21T23:57:51.211Z,17.97
